Crocker, South Dakota
Current Conditions -  °F | °C
As of 1:53 AM on Sunday 26 Oct 2014 (Local Time) from KATY Reporting Station
Clear Clear  
Wind Chill: 38°   Ceiling: Unl
Heat Index: 42°   Visibility: 10mi
Dew Point: 30°   Wind: 6mph
Humidity: 62%   Direction: 140°SE
Pressure: 29.99"   Gusts: NA
Location:  45.0652°N, 97.616°W
Report Text: KATY 260653Z AUTO 14005KT 10SM CLR 06/M01 A2999 RMK AO2 SLP158 T00561011 $
Loading
Personal Weather Stations






























Interactive Weather Map
Tropical Storm Tracking
New forecast layout! Learn more

10-Day Weather Forecast

Advertisements
Track Severe Weather on mobile